createdAt,value
2022-10-17T00:00:15.137Z,3.13
2022-10-17T00:02:41.795Z,2.85
2022-10-17T00:05:08.561Z,3.88
2022-10-17T00:07:35.123Z,4.07
2022-10-17T00:10:01.728Z,3.53
2022-10-17T00:12:28.284Z,3.90
2022-10-17T00:14:54.878Z,3.42
2022-10-17T00:17:21.488Z,3.67
2022-10-17T00:19:48.074Z,4.13
2022-10-17T00:22:14.936Z,3.17
2022-10-17T00:24:41.695Z,3.20
2022-10-17T00:27:08.437Z,3.55
2022-10-17T00:29:35.021Z,4.20
2022-10-17T00:32:01.663Z,3.58
2022-10-17T00:34:29.601Z,3.67
2022-10-17T00:36:56.198Z,3.17
2022-10-17T00:39:22.787Z,3.60
2022-10-17T00:41:49.360Z,3.83
2022-10-17T00:44:30.920Z,3.60
2022-10-17T00:46:59.387Z,3.63
2022-10-17T00:49:30.762Z,3.90
2022-10-17T00:52:01.171Z,3.88
2022-10-17T00:54:33.809Z,4.30
2022-10-17T00:57:01.216Z,3.90
2022-10-17T00:59:29.195Z,3.63
2022-10-17T01:02:16.802Z,3.70
2022-10-17T01:04:47.304Z,4.10
2022-10-17T01:07:14.060Z,4.18
2022-10-17T01:09:41.761Z,4.20
2022-10-17T01:12:40.689Z,3.72
2022-10-17T01:15:40.245Z,3.45
2022-10-17T01:18:47.016Z,4.10
2022-10-17T01:21:39.848Z,3.88
2022-10-17T01:24:28.221Z,4.60
2022-10-17T01:27:04.090Z,4.05
2022-10-17T01:29:41.603Z,4.45
2022-10-17T01:32:22.699Z,4.63
2022-10-17T01:35:00.741Z,4.70
2022-10-17T01:37:45.100Z,4.60
2022-10-17T01:40:29.695Z,4.28
2022-10-17T01:43:11.376Z,3.97
2022-10-17T01:45:51.470Z,4.00
2022-10-17T01:48:23.581Z,4.50
2022-10-17T01:50:58.479Z,4.03
2022-10-17T01:53:31.942Z,3.85
2022-10-17T01:56:02.065Z,4.60
2022-10-17T01:58:33.854Z,4.65
2022-10-17T02:01:04.786Z,4.38
2022-10-17T02:03:34.356Z,4.47
2022-10-17T02:06:01.654Z,3.95
2022-10-17T02:08:40.700Z,3.70
2022-10-17T02:11:21.972Z,4.50
2022-10-17T02:14:32.242Z,4.05
2022-10-17T02:17:04.884Z,4.97
2022-10-17T02:19:40.385Z,3.83
2022-10-17T02:22:12.873Z,4.00
2022-10-17T02:24:45.794Z,4.60
2022-10-17T02:27:23.785Z,3.63
2022-10-17T02:30:00.392Z,4.32
2022-10-17T02:32:31.823Z,4.82
2022-10-17T02:35:02.341Z,4.30
2022-10-17T02:37:31.246Z,3.53
2022-10-17T02:40:00.444Z,4.13
2022-10-17T02:42:28.842Z,4.60
2022-10-17T02:45:00.297Z,4.43
2022-10-17T02:47:31.830Z,4.60
2022-10-17T02:49:58.611Z,4.30
2022-10-17T02:52:37.179Z,3.58
2022-10-17T02:55:15.495Z,4.43
2022-10-17T02:57:46.374Z,3.33
2022-10-17T03:00:15.526Z,4.00
2022-10-17T03:02:46.125Z,4.70
2022-10-17T03:05:15.507Z,4.68
2022-10-17T03:07:42.126Z,4.20
2022-10-17T03:10:08.931Z,4.95
2022-10-17T03:12:35.541Z,3.70
2022-10-17T03:15:02.516Z,4.47
2022-10-17T03:17:29.208Z,4.47
2022-10-17T03:19:55.882Z,4.13
2022-10-17T03:22:22.467Z,3.70
2022-10-17T03:24:49.056Z,3.80
2022-10-17T03:27:15.721Z,4.50
2022-10-17T03:29:42.421Z,3.92
2022-10-17T03:32:09.041Z,4.22
2022-10-17T03:34:35.619Z,4.70
2022-10-17T03:37:02.259Z,4.55
2022-10-17T03:39:28.854Z,4.20
2022-10-17T03:41:55.440Z,5.22
2022-10-17T03:44:22.123Z,5.00
2022-10-17T03:46:48.705Z,4.22
2022-10-17T03:49:15.373Z,4.28
2022-10-17T03:51:41.957Z,4.80
2022-10-17T03:54:08.557Z,4.68
2022-10-17T03:56:35.120Z,4.53
2022-10-17T03:59:01.685Z,4.38
2022-10-17T04:01:28.344Z,4.05
2022-10-17T04:03:57.378Z,4.03
2022-10-17T04:06:24.149Z,4.78
2022-10-17T04:08:50.963Z,4.05
2022-10-17T04:11:20.080Z,3.78
2022-10-17T04:13:47.319Z,3.75
2022-10-17T04:16:16.384Z,4.68
2022-10-17T04:18:43.777Z,5.38
2022-10-17T04:21:11.263Z,4.70
2022-10-17T04:23:38.271Z,4.82
2022-10-17T04:26:06.153Z,3.80
2022-10-17T04:28:33.372Z,4.13
2022-10-17T04:31:02.499Z,4.10
2022-10-17T04:33:29.760Z,5.13
2022-10-17T04:36:01.103Z,5.40
2022-10-17T04:38:29.085Z,5.18
2022-10-17T04:41:02.999Z,4.80
2022-10-17T04:43:31.364Z,5.63
2022-10-17T04:45:59.002Z,5.35
2022-10-17T04:48:25.637Z,3.75
2022-10-17T04:50:55.571Z,5.80
2022-10-17T04:53:23.203Z,5.45
2022-10-17T04:55:50.110Z,5.45
2022-10-17T04:58:17.376Z,5.60
2022-10-17T05:00:44.275Z,6.78
2022-10-17T05:03:10.980Z,6.18
2022-10-17T05:05:39.121Z,6.38
2022-10-17T05:08:06.957Z,5.20
2022-10-17T05:10:42.237Z,5.97
2022-10-17T05:13:09.339Z,6.03
2022-10-17T05:15:37.062Z,4.05
2022-10-17T05:18:05.182Z,7.05
2022-10-17T05:20:32.759Z,4.63
2022-10-17T05:23:00.233Z,3.92
2022-10-17T05:25:26.833Z,4.43
2022-10-17T05:27:54.191Z,5.07
2022-10-17T05:30:20.796Z,4.47
2022-10-17T05:32:47.414Z,5.15
2022-10-17T05:35:14.082Z,5.38
2022-10-17T05:37:40.687Z,5.00
2022-10-17T05:40:07.952Z,5.30
2022-10-17T05:42:34.629Z,5.28
2022-10-17T05:45:01.263Z,5.32
2022-10-17T05:47:28.314Z,5.88
2022-10-17T05:49:55.142Z,5.47
2022-10-17T05:52:21.753Z,5.13
2022-10-17T05:54:48.340Z,5.28
2022-10-17T05:57:15.022Z,4.82
2022-10-17T05:59:41.613Z,4.80
2022-10-17T06:02:11.261Z,5.35
2022-10-17T06:04:37.936Z,4.63
2022-10-17T06:07:05.110Z,4.80
2022-10-17T06:09:31.755Z,5.05
2022-10-17T06:11:58.446Z,4.47
2022-10-17T06:14:25.086Z,5.07
2022-10-17T06:16:51.640Z,4.45
2022-10-17T06:19:18.292Z,5.70
2022-10-17T06:21:44.999Z,5.30
2022-10-17T06:24:11.963Z,5.55
2022-10-17T06:26:38.646Z,5.35
2022-10-17T06:29:05.254Z,4.80
2022-10-17T06:31:31.872Z,5.05
2022-10-17T06:33:58.517Z,5.18
2022-10-17T06:36:25.255Z,6.00
2022-10-17T06:38:51.831Z,5.55
2022-10-17T06:41:21.407Z,5.82
2022-10-17T06:43:48.332Z,6.32
2022-10-17T06:46:17.300Z,6.28
2022-10-17T06:48:44.156Z,6.93
2022-10-17T06:51:11.437Z,5.88
2022-10-17T06:53:39.525Z,5.63
2022-10-17T06:56:08.058Z,5.45
2022-10-17T06:58:38.989Z,5.00
2022-10-17T07:01:11.532Z,5.15
2022-10-17T07:03:40.057Z,4.65
2022-10-17T07:06:07.457Z,5.13
2022-10-17T07:08:34.052Z,3.60
2022-10-17T07:11:16.549Z,5.18
2022-10-17T07:13:43.658Z,5.53
2022-10-17T07:16:11.153Z,4.43
2022-10-17T07:18:38.632Z,5.10
2022-10-17T07:21:05.766Z,4.85
2022-10-17T07:23:34.239Z,4.72
2022-10-17T07:26:02.237Z,4.07
2022-10-17T07:28:29.086Z,4.90
2022-10-17T07:30:55.778Z,4.20
2022-10-17T07:33:22.393Z,5.35
2022-10-17T07:35:49.036Z,5.20
2022-10-17T07:38:15.586Z,4.43
2022-10-17T07:40:42.248Z,4.70
2022-10-17T07:43:08.829Z,4.32
2022-10-17T07:45:35.448Z,4.70
2022-10-17T07:48:02.058Z,4.30
2022-10-17T07:50:29.110Z,3.67
2022-10-17T07:52:55.679Z,3.60
2022-10-17T07:55:22.273Z,4.88
2022-10-17T07:57:48.857Z,4.20
2022-10-17T08:00:15.612Z,4.97
2022-10-17T08:02:42.210Z,4.40
2022-10-17T08:05:09.121Z,3.80
2022-10-17T08:07:35.780Z,3.72
2022-10-17T08:10:02.482Z,4.50
2022-10-17T08:12:32.586Z,5.10
2022-10-17T08:14:59.708Z,3.92
2022-10-17T08:17:26.688Z,3.92
2022-10-17T08:19:53.343Z,4.50
2022-10-17T08:22:19.969Z,3.90
2022-10-17T08:24:46.583Z,3.75
2022-10-17T08:27:13.669Z,5.68
2022-10-17T08:29:40.782Z,4.85
2022-10-17T08:32:10.024Z,5.72
2022-10-17T08:34:36.838Z,3.80
2022-10-17T08:37:03.783Z,4.47
2022-10-17T08:39:30.438Z,4.50
2022-10-17T08:42:14.177Z,4.65
2022-10-17T08:44:52.700Z,4.25
2022-10-17T08:47:39.708Z,3.85
2022-10-17T08:50:12.865Z,4.80
2022-10-17T08:52:54.573Z,4.47
2022-10-17T08:55:32.055Z,4.70
2022-10-17T08:57:58.648Z,5.40
2022-10-17T09:00:26.497Z,4.60
2022-10-17T09:03:19.495Z,3.92
2022-10-17T09:05:53.788Z,4.95
2022-10-17T09:08:42.652Z,5.00
2022-10-17T09:11:36.114Z,4.57
2022-10-17T09:14:21.308Z,5.53
2022-10-17T09:17:07.564Z,5.63
2022-10-17T09:19:38.820Z,5.40
2022-10-17T09:22:18.442Z,5.53
2022-10-17T09:24:50.623Z,5.68
2022-10-17T09:27:38.497Z,5.25
2022-10-17T09:30:33.430Z,4.93
2022-10-17T09:33:53.273Z,5.28
2022-10-17T09:36:24.494Z,4.43
2022-10-17T09:38:55.273Z,4.65
2022-10-17T09:41:51.813Z,4.57
2022-10-17T09:44:30.743Z,4.28
2022-10-17T09:47:20.157Z,4.93
2022-10-17T09:49:48.548Z,5.25
2022-10-17T09:52:18.793Z,4.38
2022-10-17T09:54:51.262Z,5.20
2022-10-17T09:57:19.555Z,4.57
2022-10-17T09:59:48.108Z,4.60
2022-10-17T10:02:23.267Z,4.32
2022-10-17T10:05:06.379Z,4.20
2022-10-17T10:07:38.924Z,4.82
2022-10-17T10:10:25.426Z,3.97
2022-10-17T10:13:18.059Z,4.68
2022-10-17T10:15:46.851Z,4.05
2022-10-17T10:21:06.994Z,5.35
2022-10-17T10:23:34.492Z,5.30
2022-10-17T10:26:18.906Z,5.47
2022-10-17T10:28:58.592Z,5.47
2022-10-17T10:31:31.420Z,5.97
2022-10-17T10:34:01.274Z,5.35
2022-10-17T10:36:47.755Z,5.35
2022-10-17T10:39:32.281Z,4.90
2022-10-17T10:42:01.081Z,5.85
2022-10-17T10:44:30.595Z,4.72
2022-10-17T10:47:20.512Z,3.92
2022-10-17T10:49:47.689Z,4.30
2022-10-17T10:52:45.278Z,4.63
2022-10-17T10:55:27.802Z,4.80
2022-10-17T10:58:00.204Z,4.65
2022-10-17T11:00:28.926Z,4.93
2022-10-17T11:03:19.297Z,5.05
2022-10-17T11:05:58.632Z,5.65
2022-10-17T11:08:36.553Z,5.20
2022-10-17T11:15:06.153Z,5.82
2022-10-17T11:17:39.706Z,8.88
2022-10-17T11:20:09.753Z,9.55
2022-10-17T11:22:44.301Z,8.70
2022-10-17T11:25:28.261Z,8.75
2022-10-17T11:27:54.890Z,8.98
2022-10-17T11:30:24.123Z,6.60
2022-10-17T11:32:59.209Z,11.90
2022-10-17T11:35:39.109Z,9.32
2022-10-17T11:38:39.743Z,6.32
2022-10-17T11:41:09.056Z,6.25
2022-10-17T11:43:42.689Z,5.72
2022-10-17T11:46:20.046Z,6.25
2022-10-17T11:49:07.643Z,5.72
2022-10-17T11:52:10.357Z,5.68
2022-10-17T11:54:45.832Z,5.78
2022-10-17T11:57:32.580Z,6.20
2022-10-17T12:00:16.532Z,6.80
2022-10-17T12:02:58.714Z,9.27
2022-10-17T12:05:50.431Z,9.40
2022-10-17T12:08:31.593Z,8.27
2022-10-17T12:11:22.551Z,6.40
2022-10-17T12:13:52.594Z,6.38
2022-10-17T12:16:19.457Z,5.93
2022-10-17T12:18:48.170Z,6.13
2022-10-17T12:21:15.106Z,6.10
2022-10-17T12:23:51.996Z,5.22
2022-10-17T12:26:26.830Z,6.07
2022-10-17T12:28:53.599Z,5.57
2022-10-17T12:31:21.669Z,5.30
2022-10-17T12:33:59.717Z,6.15
2022-10-17T12:36:26.240Z,6.38
2022-10-17T12:39:01.728Z,6.60
2022-10-17T12:41:40.631Z,6.10
2022-10-17T12:44:28.256Z,6.28
2022-10-17T12:47:09.381Z,5.95
2022-10-17T12:49:47.280Z,5.53
2022-10-17T12:52:22.777Z,5.80
2022-10-17T12:55:11.414Z,6.38
2022-10-17T12:57:56.449Z,6.50
2022-10-17T13:00:37.074Z,5.20
2022-10-17T13:03:19.813Z,4.93
2022-10-17T13:05:51.345Z,6.05
2022-10-17T13:08:33.346Z,5.45
2022-10-17T13:11:01.325Z,4.80
2022-10-17T13:13:52.128Z,4.93
2022-10-17T13:16:29.324Z,4.22
2022-10-17T13:18:56.351Z,3.97
2022-10-17T13:21:23.054Z,4.07
2022-10-17T13:23:51.223Z,3.50
2022-10-17T13:26:21.800Z,4.18
2022-10-17T13:29:06.963Z,4.28
2022-10-17T13:31:39.384Z,4.50
2022-10-17T13:34:15.461Z,4.43
2022-10-17T13:36:48.501Z,4.32
2022-10-17T13:39:19.902Z,4.85
2022-10-17T13:41:56.290Z,5.00
2022-10-17T13:44:33.852Z,4.30
2022-10-17T13:47:01.347Z,5.10
2022-10-17T13:49:35.006Z,5.30
2022-10-17T13:52:04.269Z,4.65
2022-10-17T13:54:42.028Z,5.07
2022-10-17T13:57:21.224Z,4.78
2022-10-17T13:59:51.577Z,4.82
2022-10-17T14:02:23.416Z,5.00
2022-10-17T14:05:17.878Z,4.85
2022-10-17T14:08:11.383Z,5.30
2022-10-17T14:10:40.434Z,4.22
2022-10-17T14:13:16.501Z,4.80
2022-10-17T14:15:45.813Z,4.72
2022-10-17T14:18:21.071Z,5.35
2022-10-17T14:23:39.190Z,5.13
2022-10-17T14:26:06.300Z,4.70
2022-10-17T14:28:33.575Z,5.32
2022-10-17T14:31:25.641Z,4.88
2022-10-17T14:33:53.614Z,4.97
2022-10-17T14:36:29.824Z,5.47
2022-10-17T14:38:57.109Z,5.78
2022-10-17T14:44:20.467Z,5.45
2022-10-17T14:46:50.919Z,5.55
2022-10-17T14:49:24.792Z,5.50
2022-10-17T14:52:22.293Z,5.90
2022-10-17T14:54:50.396Z,5.03
2022-10-17T14:57:26.732Z,5.18
2022-10-17T14:59:56.178Z,5.57
2022-10-17T15:02:28.290Z,6.10
2022-10-17T15:04:55.361Z,5.10
2022-10-17T15:07:23.527Z,5.55
2022-10-17T15:09:51.908Z,6.35
2022-10-17T15:12:21.225Z,6.90
2022-10-17T15:14:48.503Z,6.55
2022-10-17T15:17:20.533Z,6.20
2022-10-17T15:19:48.268Z,6.07
2022-10-17T15:22:16.063Z,12.20
2022-10-17T15:24:43.042Z,9.60
2022-10-17T15:27:22.382Z,6.80
2022-10-17T15:29:50.169Z,7.20
2022-10-17T15:32:17.328Z,6.63
2022-10-17T15:34:44.034Z,7.45
2022-10-17T15:37:18.728Z,6.80
2022-10-17T15:39:52.825Z,5.25
2022-10-17T15:42:20.676Z,6.28
2022-10-17T15:44:49.800Z,6.18
2022-10-17T15:47:33.786Z,6.18
2022-10-17T15:50:02.047Z,6.00
2022-10-17T15:52:28.661Z,6.10
2022-10-17T15:54:57.358Z,6.00
2022-10-17T15:57:29.476Z,7.15
2022-10-17T15:59:58.761Z,6.13
2022-10-17T16:02:25.544Z,5.88
2022-10-17T16:04:52.726Z,5.63
2022-10-17T16:07:20.617Z,11.18
2022-10-17T16:09:47.522Z,10.60
2022-10-17T16:12:27.556Z,6.50
2022-10-17T16:14:54.378Z,6.15
2022-10-17T16:17:20.993Z,5.68
2022-10-17T16:19:47.620Z,5.53
2022-10-17T16:22:22.947Z,5.72
2022-10-17T16:24:49.636Z,5.40
2022-10-17T16:27:16.350Z,5.45
2022-10-17T16:29:42.987Z,5.20
2022-10-17T16:32:10.333Z,5.05
2022-10-17T16:34:37.055Z,5.70
2022-10-17T16:37:03.685Z,5.25
2022-10-17T16:39:30.426Z,5.05
2022-10-17T16:41:58.625Z,4.75
2022-10-17T16:44:25.514Z,4.88
2022-10-17T16:46:52.119Z,5.03
2022-10-17T16:49:18.713Z,5.30
2022-10-17T16:51:45.326Z,5.28
2022-10-17T16:54:11.930Z,4.85
2022-10-17T16:56:38.643Z,4.93
2022-10-17T16:59:05.301Z,5.15
2022-10-17T17:01:32.005Z,5.65
2022-10-17T17:03:59.169Z,6.22
2022-10-17T17:06:28.426Z,5.60
2022-10-17T17:08:55.772Z,5.07
2022-10-17T17:11:27.248Z,5.40
2022-10-17T17:13:58.215Z,5.93
2022-10-17T17:16:26.372Z,6.32
2022-10-17T17:19:04.567Z,6.63
2022-10-17T17:21:32.095Z,6.25
2022-10-17T17:24:00.555Z,6.22
2022-10-17T17:26:30.950Z,6.57
2022-10-17T17:28:59.602Z,6.10
2022-10-17T17:31:29.676Z,6.22
2022-10-17T17:33:56.900Z,5.65
2022-10-17T17:36:26.228Z,5.78
2022-10-17T17:38:55.958Z,6.75
2022-10-17T17:41:23.208Z,8.32
2022-10-17T17:43:50.732Z,12.05
2022-10-17T17:46:19.200Z,11.40
2022-10-17T17:48:47.516Z,7.80
2022-10-17T17:51:17.371Z,10.65
2022-10-17T17:53:44.230Z,15.55
2022-10-17T17:56:14.185Z,14.40
2022-10-17T17:58:48.419Z,7.60
2022-10-17T18:01:22.341Z,5.63
2022-10-17T18:03:52.044Z,14.48
2022-10-17T18:06:20.173Z,7.03
2022-10-17T18:08:49.890Z,5.90
2022-10-17T18:11:19.618Z,5.07
2022-10-17T18:13:52.553Z,4.07
2022-10-17T18:16:19.162Z,5.57
2022-10-17T18:18:45.736Z,5.50
2022-10-17T18:21:13.826Z,4.65
2022-10-17T18:23:41.663Z,4.65
2022-10-17T18:26:09.799Z,4.20
2022-10-17T18:28:38.843Z,6.20
2022-10-17T18:31:15.197Z,4.38
2022-10-17T18:33:42.850Z,4.25
2022-10-17T18:36:12.019Z,3.80
2022-10-17T18:38:38.947Z,6.22
2022-10-17T18:41:11.078Z,4.63
2022-10-17T18:43:39.564Z,4.80
2022-10-17T18:46:17.385Z,4.38
2022-10-17T18:48:45.764Z,3.60
2022-10-17T18:51:13.808Z,3.63
2022-10-17T18:53:45.735Z,3.70
2022-10-17T18:56:13.499Z,5.30
2022-10-17T18:58:41.071Z,4.88
2022-10-17T19:01:19.820Z,4.60
2022-10-17T19:03:49.094Z,4.80
2022-10-17T19:06:18.256Z,6.22
2022-10-17T19:08:45.782Z,8.32
2022-10-17T19:11:14.946Z,4.65
2022-10-17T19:13:42.259Z,4.47
2022-10-17T19:16:12.276Z,5.47
2022-10-17T19:18:39.028Z,3.75
2022-10-17T19:21:08.846Z,4.00
2022-10-17T19:23:36.619Z,5.28
2022-10-17T19:26:09.242Z,5.10
2022-10-17T19:28:37.709Z,4.65
2022-10-17T19:31:06.014Z,5.00
2022-10-17T19:33:33.568Z,5.25
2022-10-17T19:36:06.973Z,4.10
2022-10-17T19:38:34.295Z,5.35
2022-10-17T19:41:01.336Z,8.65
2022-10-17T19:43:28.442Z,4.32
2022-10-17T19:46:01.441Z,5.38
2022-10-17T19:48:30.916Z,5.57
2022-10-17T19:50:57.488Z,4.40
2022-10-17T19:53:24.953Z,3.80
2022-10-17T19:55:51.529Z,3.60
2022-10-17T19:58:18.124Z,3.30
2022-10-17T20:00:54.278Z,3.55
2022-10-17T20:03:21.498Z,4.78
2022-10-17T20:05:48.435Z,3.67
2022-10-17T20:08:15.474Z,4.15
2022-10-17T20:10:42.797Z,3.83
2022-10-17T20:13:10.311Z,4.10
2022-10-17T20:15:37.212Z,8.27
2022-10-17T20:18:04.799Z,7.60
2022-10-17T20:20:33.532Z,4.70
2022-10-17T20:23:00.139Z,5.75
2022-10-17T20:25:26.972Z,7.57
2022-10-17T20:27:53.572Z,5.53
2022-10-17T20:30:20.209Z,6.03
2022-10-17T20:32:46.822Z,6.43
2022-10-17T20:35:13.413Z,5.18
2022-10-17T20:37:42.534Z,3.90
2022-10-17T20:40:33.642Z,3.88
2022-10-17T20:42:56.603Z,4.68
2022-10-17T20:45:37.417Z,5.28
2022-10-17T20:48:14.030Z,6.28
2022-10-17T20:50:41.545Z,4.88
2022-10-17T20:53:35.016Z,4.18
2022-10-17T20:56:09.409Z,5.25
2022-10-17T20:58:36.285Z,4.50
2022-10-17T21:01:07.555Z,4.47
2022-10-17T21:03:41.152Z,2.72
2022-10-17T21:06:10.948Z,1.90
2022-10-17T21:08:37.780Z,1.98
2022-10-17T21:11:17.161Z,2.00
2022-10-17T21:13:44.757Z,2.58
2022-10-17T21:16:13.868Z,7.47
2022-10-17T21:18:41.018Z,3.63
2022-10-17T21:21:17.904Z,4.07
2022-10-17T21:23:46.661Z,3.88
2022-10-17T21:26:13.986Z,4.85
2022-10-17T21:28:41.778Z,2.60
2022-10-17T21:31:13.079Z,2.60
2022-10-17T21:33:40.705Z,2.83
2022-10-17T21:36:08.565Z,4.65
2022-10-17T21:38:39.065Z,3.47
2022-10-17T21:41:07.317Z,2.75
2022-10-17T21:43:34.627Z,2.28
2022-10-17T21:46:22.409Z,3.60
2022-10-17T21:48:50.437Z,2.40
2022-10-17T21:51:18.915Z,1.85
2022-10-17T21:53:46.054Z,3.17
2022-10-17T21:56:15.210Z,3.22
2022-10-17T21:58:42.397Z,3.40
2022-10-17T22:01:10.132Z,2.90
2022-10-17T22:03:45.810Z,2.00
2022-10-17T22:09:05.686Z,1.70
2022-10-17T22:11:34.877Z,1.50
2022-10-17T22:14:12.866Z,1.75
2022-10-17T22:16:40.221Z,1.52
2022-10-17T22:19:08.056Z,2.25
2022-10-17T22:21:36.882Z,2.20
2022-10-17T22:24:06.566Z,2.85
2022-10-17T22:26:35.812Z,3.53
2022-10-17T22:29:04.172Z,1.95
2022-10-17T22:31:30.901Z,1.70
2022-10-17T22:33:57.476Z,1.63
2022-10-17T22:36:24.123Z,2.10
2022-10-17T22:38:50.733Z,2.03
2022-10-17T22:41:17.356Z,2.00
2022-10-17T22:43:43.989Z,2.15
2022-10-17T22:46:12.918Z,2.10
2022-10-17T22:48:39.933Z,4.30
2022-10-17T22:51:06.638Z,3.35
2022-10-17T22:53:35.035Z,2.55
2022-10-17T22:56:09.509Z,2.50
2022-10-17T22:58:36.600Z,2.17
2022-10-17T23:01:04.650Z,2.20
2022-10-17T23:03:32.144Z,2.42
2022-10-17T23:05:59.482Z,1.88
2022-10-17T23:08:27.007Z,2.20
2022-10-17T23:10:53.848Z,2.25
2022-10-17T23:13:21.760Z,2.00
2022-10-17T23:15:56.199Z,2.00
2022-10-17T23:18:24.328Z,2.33
2022-10-17T23:20:51.545Z,2.28
2022-10-17T23:23:19.237Z,1.90
2022-10-17T23:25:46.096Z,2.30
2022-10-17T23:28:12.954Z,2.40
2022-10-17T23:30:40.023Z,2.10
2022-10-17T23:33:07.387Z,2.30
2022-10-17T23:35:35.218Z,2.08
2022-10-17T23:38:01.822Z,2.28
2022-10-17T23:40:29.507Z,2.15
2022-10-17T23:42:56.091Z,2.30
2022-10-17T23:45:22.758Z,2.13
2022-10-17T23:47:49.468Z,3.17
2022-10-17T23:50:16.383Z,2.10
2022-10-17T23:52:43.089Z,2.22
2022-10-17T23:55:10.067Z,1.90
2022-10-17T23:57:36.654Z,2.00
